createdAt,value
2022-11-26T00:00:15.103Z,5.90
2022-11-26T00:05:19.833Z,5.90
2022-11-26T00:10:26.911Z,5.90
2022-11-26T00:15:32.537Z,5.90
2022-11-26T00:20:37.209Z,5.90
2022-11-26T00:25:43.381Z,5.90
2022-11-26T00:30:47.140Z,5.80
2022-11-26T00:35:56.477Z,5.90
2022-11-26T00:41:00.564Z,5.90
2022-11-26T00:46:03.874Z,5.90
2022-11-26T00:51:14.796Z,5.90
2022-11-26T00:56:21.238Z,5.80
2022-11-26T01:01:26.261Z,5.80
2022-11-26T01:06:35.240Z,5.80
2022-11-26T01:11:38.533Z,5.80
2022-11-26T01:16:42.449Z,5.80
2022-11-26T01:21:47.136Z,5.80
2022-11-26T01:26:50.679Z,5.80
2022-11-26T01:31:54.103Z,5.80
2022-11-26T01:36:58.993Z,5.80
2022-11-26T01:42:09.054Z,5.80
2022-11-26T01:47:22.168Z,5.80
2022-11-26T01:52:27.409Z,5.80
2022-11-26T01:57:32.899Z,5.70
2022-11-26T02:02:36.603Z,5.70
2022-11-26T02:07:41.621Z,5.80
2022-11-26T02:12:45.274Z,5.80
2022-11-26T02:17:53.787Z,5.70
2022-11-26T02:23:29.307Z,5.80
2022-11-26T02:28:56.833Z,5.70
2022-11-26T02:34:09.807Z,5.80
2022-11-26T02:39:14.998Z,5.70
2022-11-26T02:44:21.524Z,5.70
2022-11-26T02:49:27.783Z,5.70
2022-11-26T02:54:33.219Z,5.60
2022-11-26T02:59:38.045Z,5.60
2022-11-26T03:04:50.654Z,5.60
2022-11-26T03:09:56.095Z,5.60
2022-11-26T03:15:00.521Z,5.50
2022-11-26T03:20:06.447Z,5.50
2022-11-26T03:25:10.821Z,5.50
2022-11-26T03:30:14.896Z,5.50
2022-11-26T03:35:20.472Z,5.50
2022-11-26T03:40:24.032Z,5.50
2022-11-26T03:45:27.663Z,5.50
2022-11-26T03:50:32.458Z,5.50
2022-11-26T03:55:35.763Z,5.50
2022-11-26T04:00:39.111Z,5.50
2022-11-26T04:05:43.881Z,5.50
2022-11-26T04:10:47.150Z,5.50
2022-11-26T04:15:50.688Z,5.50
2022-11-26T04:20:55.360Z,5.50
2022-11-26T04:25:58.689Z,5.50
2022-11-26T04:31:02.012Z,5.50
2022-11-26T04:36:07.270Z,5.50
2022-11-26T04:41:10.557Z,5.50
2022-11-26T04:46:14.085Z,5.50
2022-11-26T04:51:18.816Z,5.30
2022-11-26T04:56:22.102Z,5.50
2022-11-26T05:01:25.617Z,5.50
2022-11-26T05:06:30.502Z,5.60
2022-11-26T05:11:33.780Z,5.50
2022-11-26T05:16:37.214Z,5.60
2022-11-26T05:21:42.809Z,5.50
2022-11-26T05:26:46.167Z,5.50
2022-11-26T05:31:49.627Z,5.50
2022-11-26T05:36:54.392Z,5.50
2022-11-26T05:41:57.661Z,5.60
2022-11-26T05:47:00.987Z,5.60
2022-11-26T05:52:05.878Z,5.50
2022-11-26T05:57:10.830Z,5.50
2022-11-26T06:02:14.268Z,5.60
2022-11-26T06:07:19.227Z,5.60
2022-11-26T06:12:22.738Z,5.60
2022-11-26T06:17:26.545Z,5.60
2022-11-26T06:22:31.468Z,5.50
2022-11-26T06:27:35.278Z,5.50
2022-11-26T06:32:38.923Z,5.50
2022-11-26T06:37:43.729Z,5.50
2022-11-26T06:42:50.246Z,5.50
2022-11-26T06:47:53.865Z,5.50
2022-11-26T06:52:58.631Z,5.50
2022-11-26T06:58:02.046Z,5.50
2022-11-26T07:03:05.515Z,5.50
2022-11-26T07:08:10.299Z,5.50
2022-11-26T07:13:13.697Z,5.40
2022-11-26T07:18:18.069Z,5.40
2022-11-26T07:23:23.021Z,5.40
2022-11-26T07:28:26.555Z,5.40
2022-11-26T07:33:29.975Z,5.40
2022-11-26T07:38:34.831Z,5.40
2022-11-26T07:43:39.543Z,5.40
2022-11-26T07:48:43.267Z,5.50
2022-11-26T07:53:48.800Z,5.60
2022-11-26T07:58:52.304Z,5.60
2022-11-26T08:03:55.761Z,5.50
2022-11-26T08:09:03.340Z,5.70
2022-11-26T08:14:08.472Z,6.10
2022-11-26T08:19:13.872Z,6.30
2022-11-26T08:24:20.688Z,6.40
2022-11-26T08:29:23.932Z,6.30
2022-11-26T08:34:27.194Z,6.40
2022-11-26T08:39:31.954Z,6.40
2022-11-26T08:44:35.426Z,6.50
2022-11-26T08:49:38.919Z,6.80
2022-11-26T08:54:45.462Z,6.80
2022-11-26T08:59:50.509Z,6.80
2022-11-26T09:04:53.944Z,6.90
2022-11-26T09:09:58.659Z,6.80
2022-11-26T09:15:02.015Z,6.90
2022-11-26T09:20:06.031Z,7.00
2022-11-26T09:25:11.547Z,7.10
2022-11-26T09:30:16.345Z,7.00
2022-11-26T09:35:19.700Z,6.80
2022-11-26T09:40:30.347Z,7.10
2022-11-26T09:45:42.529Z,7.20
2022-11-26T09:50:47.045Z,7.20
2022-11-26T09:55:54.480Z,7.40
2022-11-26T10:01:00.314Z,7.40
2022-11-26T10:06:07.592Z,7.30
2022-11-26T10:11:20.756Z,7.60
2022-11-26T10:16:30.574Z,7.50
2022-11-26T10:21:58.225Z,7.70
2022-11-26T10:27:13.785Z,7.70
2022-11-26T10:32:23.271Z,7.80
2022-11-26T10:37:28.560Z,7.80
2022-11-26T10:42:43.004Z,8.10
2022-11-26T10:47:46.359Z,7.90
2022-11-26T10:52:50.143Z,7.80
2022-11-26T10:57:58.337Z,7.80
2022-11-26T11:03:03.404Z,8.20
2022-11-26T11:08:06.896Z,8.20
2022-11-26T11:13:13.739Z,8.50
2022-11-26T11:18:22.512Z,8.50
2022-11-26T11:23:52.156Z,9.20
2022-11-26T11:28:54.768Z,9.60
2022-11-26T11:34:20.516Z,8.60
2022-11-26T11:39:30.013Z,8.40
2022-11-26T11:44:40.735Z,8.60
2022-11-26T11:49:56.099Z,8.50
2022-11-26T11:55:08.444Z,8.40
2022-11-26T12:00:16.136Z,8.20
2022-11-26T12:05:37.216Z,8.40
2022-11-26T12:10:48.984Z,8.50
2022-11-26T12:15:57.840Z,8.40
2022-11-26T12:21:06.395Z,8.60
2022-11-26T12:26:15.867Z,8.50
2022-11-26T12:31:24.799Z,8.50
2022-11-26T12:36:36.145Z,8.70
2022-11-26T12:41:44.973Z,8.50
2022-11-26T12:46:59.344Z,8.30
2022-11-26T12:52:13.003Z,8.30
2022-11-26T12:57:23.595Z,11.20
2022-11-26T13:02:32.248Z,8.20
2022-11-26T13:07:52.546Z,8.30
2022-11-26T13:13:04.029Z,8.50
2022-11-26T13:18:15.206Z,8.60
2022-11-26T13:23:38.304Z,9.20
2022-11-26T13:29:00.110Z,9.30
2022-11-26T13:34:32.860Z,9.30
2022-11-26T13:40:12.476Z,8.80
2022-11-26T13:45:36.470Z,8.80
2022-11-26T13:50:45.882Z,8.50
2022-11-26T13:55:55.391Z,8.30
2022-11-26T14:01:28.706Z,8.40
2022-11-26T14:06:33.575Z,8.30
2022-11-26T14:11:58.089Z,9.10
2022-11-26T14:17:14.166Z,9.20
2022-11-26T14:22:30.641Z,8.90
2022-11-26T14:27:35.689Z,8.80
2022-11-26T14:32:43.220Z,8.90
2022-11-26T14:37:54.720Z,8.50
2022-11-26T14:43:16.496Z,8.00
2022-11-26T14:48:27.211Z,7.60
2022-11-26T14:53:34.762Z,7.30
2022-11-26T14:58:42.197Z,7.20
2022-11-26T15:03:55.568Z,7.00
2022-11-26T15:09:15.673Z,6.90
2022-11-26T15:14:26.872Z,6.90
2022-11-26T15:19:35.388Z,6.80
2022-11-26T15:24:40.796Z,6.80
2022-11-26T15:29:50.659Z,6.80
2022-11-26T15:34:54.976Z,6.70
2022-11-26T15:40:22.581Z,6.70
2022-11-26T15:45:34.643Z,6.70
2022-11-26T15:50:39.402Z,6.70
2022-11-26T15:55:48.051Z,6.60
2022-11-26T16:00:53.597Z,6.50
2022-11-26T16:05:57.316Z,6.40
2022-11-26T16:11:09.384Z,6.40
2022-11-26T16:16:18.506Z,6.30
2022-11-26T16:21:24.479Z,6.30
2022-11-26T16:26:29.784Z,6.20
2022-11-26T16:31:33.082Z,6.20
2022-11-26T16:36:37.081Z,6.20
2022-11-26T16:41:41.993Z,6.20
2022-11-26T16:46:45.843Z,6.20
2022-11-26T16:51:49.095Z,6.20
2022-11-26T16:56:56.157Z,6.10
2022-11-26T17:01:59.833Z,6.10
2022-11-26T17:07:03.165Z,6.00
2022-11-26T17:12:15.764Z,6.00
2022-11-26T17:17:23.943Z,5.80
2022-11-26T17:22:28.515Z,5.60
2022-11-26T17:27:33.501Z,5.60
2022-11-26T17:32:36.789Z,5.40
2022-11-26T17:37:40.809Z,5.30
2022-11-26T17:42:45.551Z,5.20
2022-11-26T17:47:49.444Z,5.20
2022-11-26T17:52:54.597Z,5.10
2022-11-26T17:57:59.287Z,5.10
2022-11-26T18:03:02.738Z,5.20
2022-11-26T18:08:06.509Z,5.20
2022-11-26T18:13:11.248Z,5.10
2022-11-26T18:18:14.604Z,5.00
2022-11-26T18:23:17.894Z,4.90
2022-11-26T18:28:22.752Z,4.80
2022-11-26T18:33:26.055Z,4.70
2022-11-26T18:38:31.441Z,4.60
2022-11-26T18:43:38.792Z,4.60
2022-11-26T18:48:42.765Z,4.50
2022-11-26T18:53:46.468Z,4.40
2022-11-26T18:58:51.977Z,4.30
2022-11-26T19:03:55.848Z,4.30
2022-11-26T19:09:00.681Z,4.30
2022-11-26T19:14:05.585Z,4.20
2022-11-26T19:19:09.008Z,4.30
2022-11-26T19:24:13.709Z,4.10
2022-11-26T19:29:19.191Z,4.10
2022-11-26T19:34:22.623Z,3.90
2022-11-26T19:39:26.001Z,3.90
2022-11-26T19:44:30.757Z,3.90
2022-11-26T19:49:34.706Z,3.80
2022-11-26T19:54:38.184Z,3.70
2022-11-26T19:59:42.845Z,3.70
2022-11-26T20:04:46.284Z,3.60
2022-11-26T20:09:52.441Z,3.50
2022-11-26T20:14:57.141Z,3.40
2022-11-26T20:20:00.516Z,3.30
2022-11-26T20:25:03.923Z,3.30
2022-11-26T20:30:10.415Z,3.20
2022-11-26T20:35:13.738Z,3.10
2022-11-26T20:40:17.876Z,3.10
2022-11-26T20:45:23.286Z,2.80
2022-11-26T20:50:26.612Z,2.60
2022-11-26T20:55:29.924Z,2.50
2022-11-26T21:00:34.604Z,2.40
2022-11-26T21:05:37.919Z,2.30
2022-11-26T21:10:42.067Z,2.30
2022-11-26T21:15:48.254Z,2.20
2022-11-26T21:20:51.566Z,2.10
2022-11-26T21:25:55.509Z,2.10
2022-11-26T21:31:04.751Z,2.00
2022-11-26T21:36:11.676Z,1.80
2022-11-26T21:41:16.168Z,1.60
2022-11-26T21:46:22.786Z,1.70
2022-11-26T21:51:28.039Z,1.70
2022-11-26T21:56:32.774Z,1.60
2022-11-26T22:01:38.957Z,1.50
2022-11-26T22:06:42.368Z,1.30
2022-11-26T22:11:46.777Z,1.30
2022-11-26T22:16:54.513Z,1.40
2022-11-26T22:21:57.827Z,1.30
2022-11-26T22:27:01.114Z,1.20
2022-11-26T22:32:06.073Z,1.10
2022-11-26T22:37:09.694Z,0.90
2022-11-26T22:47:18.580Z,1.20
2022-11-26T22:52:21.931Z,1.30
2022-11-26T22:57:25.703Z,1.50
2022-11-26T23:02:30.784Z,1.60
2022-11-26T23:07:34.947Z,1.60
2022-11-26T23:12:38.272Z,1.70
2022-11-26T23:17:43.050Z,1.70
2022-11-26T23:22:46.313Z,1.60
2022-11-26T23:27:49.639Z,1.60
2022-11-26T23:32:54.327Z,1.60
2022-11-26T23:37:57.581Z,1.30
2022-11-26T23:43:04.736Z,1.40
2022-11-26T23:48:13.017Z,1.50
2022-11-26T23:53:16.330Z,1.50
2022-11-26T23:58:19.602Z,1.60
